Time;durP1;ratioP1;P1;durP2;ratioP2;P2;SDS_P1;SDS_P2;PMS_P1;PMS_P2;Temp;Humidity;BMP_temperature;BMP_pressure;BME280_temperature;BME280_humidity;BME280_pressure;Samples;Min_cycle;Max_cycle;Signal;HPM_P1;HPM_P2
2022/10/26 00:01:13;;;;;;;3.65;1.75;;;;;;;12.58;100.00;99497.33;1703830;82;21093;-47
2022/10/26 00:03:42;;;;;;;1.50;1.40;;;;;;;12.60;100.00;99503.96;1672559;84;21067;-48
2022/10/26 00:06:15;;;;;;;1.62;1.52;;;;;;;12.54;100.00;99508.39;1701534;82;21099;-52
2022/10/26 00:08:42;;;;;;;1.47;1.37;;;;;;;12.52;100.00;99504.42;1665184;84;21089;-46
2022/10/26 00:11:09;;;;;;;1.60;1.50;;;;;;;12.53;100.00;99505.30;1672953;84;22418;-47
2022/10/26 00:13:35;;;;;;;2.17;2.08;;;;;;;12.53;100.00;99506.64;1707732;82;21597;-48
2022/10/26 00:16:09;;;;;;;1.80;1.65;;;;;;;12.51;100.00;99506.73;1702016;81;21545;-48
2022/10/26 00:18:36;;;;;;;1.65;1.55;;;;;;;12.50;100.00;99511.77;1707325;82;21095;-47
2022/10/26 00:21:05;;;;;;;6.62;1.70;;;;;;;12.48;100.00;99508.28;1702561;82;21053;-49
2022/10/26 00:23:32;;;;;;;2.00;1.90;;;;;;;12.47;100.00;99510.12;1703673;82;21910;-47
2022/10/26 00:25:58;;;;;;;3.98;2.33;;;;;;;12.47;100.00;99515.99;1700645;82;21035;-47
2022/10/26 00:28:24;;;;;;;4.67;2.45;;;;;;;12.50;100.00;99514.47;1701031;82;21049;-47
2022/10/26 00:30:51;;;;;;;5.58;2.52;;;;;;;12.53;100.00;99521.49;1699131;82;21072;-48
2022/10/26 00:33:17;;;;;;;3.40;3.15;;;;;;;12.53;100.00;99514.27;1699639;82;21101;-47
2022/10/26 00:35:53;;;;;;;5.03;2.42;;;;;;;12.54;100.00;99521.41;1700349;82;21831;-47
2022/10/26 00:38:19;;;;;;;2.83;2.50;;;;;;;12.55;100.00;99520.93;1691424;82;20983;-47
2022/10/26 00:40:47;;;;;;;3.80;3.10;;;;;;;12.56;100.00;99520.84;1702192;82;21085;-48
2022/10/26 00:43:20;;;;;;;2.65;2.45;;;;;;;12.57;100.00;99517.19;1669342;84;21069;-47
2022/10/26 00:45:48;;;;;;;5.03;2.27;;;;;;;12.59;100.00;99515.23;1701736;82;21103;-48
2022/10/26 00:48:21;;;;;;;3.85;2.50;;;;;;;12.60;100.00;99522.38;1703199;82;21766;-46
2022/10/26 00:50:48;;;;;;;3.98;2.92;;;;;;;12.60;100.00;99515.63;1702695;82;21049;-47
2022/10/26 00:53:14;;;;;;;3.10;2.67;;;;;;;12.60;100.00;99517.46;1704370;82;21046;-47
2022/10/26 00:55:45;;;;;;;3.47;2.37;;;;;;;12.62;100.00;99521.81;1689871;82;21038;-47
2022/10/26 00:58:12;;;;;;;4.20;2.80;;;;;;;12.63;100.00;99519.51;1665755;82;21078;-49
2022/10/26 01:00:38;;;;;;;2.67;2.25;;;;;;;12.62;100.00;99520.47;1649438;82;21863;-47
2022/10/26 01:03:06;;;;;;;2.25;2.10;;;;;;;12.63;100.00;99524.04;1704510;82;21099;-50
2022/10/26 01:05:33;;;;;;;2.12;2.02;;;;;;;12.60;100.00;99522.86;1701718;82;21547;-47
2022/10/26 01:08:00;;;;;;;2.30;2.20;;;;;;;12.58;100.00;99521.63;1703512;82;21089;-47
2022/10/26 01:10:26;;;;;;;2.62;2.42;;;;;;;12.55;100.00;99528.55;1672288;84;21464;-49
2022/10/26 01:12:54;;;;;;;2.65;2.37;;;;;;;12.55;100.00;99532.60;1704695;82;21912;-48
2022/10/26 01:15:23;;;;;;;1.87;1.77;;;;;;;12.54;100.00;99532.21;1697364;82;21070;-48
2022/10/26 01:17:55;;;;;;;2.47;2.35;;;;;;;12.53;100.00;99531.81;1703038;82;21149;-49
2022/10/26 01:20:34;;;;;;;4.95;2.17;;;;;;;12.52;100.00;99531.42;1704779;82;21058;-50
2022/10/26 01:23:17;;;;;;;1.85;1.70;;;;;;;12.54;100.00;99525.94;1711467;82;21051;-51
2022/10/26 01:26:12;;;;;;;5.53;2.15;;;;;;;12.53;100.00;99527.77;1670115;84;21822;-48
2022/10/26 01:29:07;;;;;;;6.22;2.33;;;;;;;12.53;100.00;99532.30;1699797;82;21062;-47
2022/10/26 01:31:48;;;;;;;3.83;2.52;;;;;;;12.53;100.00;99532.30;1703056;82;23466;-50
2022/10/26 01:34:23;;;;;;;2.58;2.35;;;;;;;12.52;100.00;99531.42;1703260;82;21086;-50
2022/10/26 01:36:55;;;;;;;2.90;2.60;;;;;;;12.53;100.00;99530.47;1708025;82;21595;-50
2022/10/26 01:39:41;;;;;;;2.83;2.62;;;;;;;12.54;100.00;99529.98;1704610;82;22497;-50
2022/10/26 01:42:08;;;;;;;6.03;2.37;;;;;;;12.53;100.00;99530.94;1705180;82;21060;-50
2022/10/26 01:44:41;;;;;;;3.45;3.00;;;;;;;12.52;100.00;99530.08;1671616;84;21105;-49
2022/10/26 01:47:10;;;;;;;9.58;2.65;;;;;;;12.51;100.00;99533.25;1712313;81;21123;-48
2022/10/26 01:49:45;;;;;;;3.77;2.70;;;;;;;12.52;100.00;99527.38;1717591;81;21546;-49
2022/10/26 01:52:13;;;;;;;4.03;3.05;;;;;;;12.54;100.00;99532.21;1719129;81;22331;-48
2022/10/26 01:54:40;;;;;;;2.75;2.55;;;;;;;12.56;100.00;99530.30;1717963;81;21018;-49
2022/10/26 01:57:08;;;;;;;4.72;3.55;;;;;;;12.58;100.00;99536.95;1715710;81;21079;-49
2022/10/26 02:00:02;;;;;;;3.87;2.83;;;;;;;12.58;100.00;99538.31;1682439;83;21105;-48
2022/10/26 02:02:59;;;;;;;3.47;3.00;;;;;;;12.57;100.00;99538.78;1682297;83;21123;-49
2022/10/26 02:05:38;;;;;;;3.02;2.67;;;;;;;12.58;100.00;99546.41;1682892;83;21053;-49
2022/10/26 02:08:47;;;;;;;3.22;3.02;;;;;;;12.56;100.00;99537.05;1686924;83;21037;-49
2022/10/26 02:11:34;;;;;;;3.50;2.77;;;;;;;12.58;100.00;99544.58;1684138;83;21064;-49
2022/10/26 02:14:34;;;;;;;3.45;3.25;;;;;;;12.58;100.00;99547.76;1671921;84;21234;-49
2022/10/26 02:17:14;;;;;;;4.78;2.40;;;;;;;12.56;100.00;99543.80;1670267;84;22466;-49
2022/10/26 02:19:57;;;;;;;4.40;2.95;;;;;;;12.56;100.00;99542.45;1669416;84;21791;-50
2022/10/26 02:22:33;;;;;;;4.25;3.33;;;;;;;12.56;100.00;99538.88;1670293;84;21098;-49
2022/10/26 02:25:02;;;;;;;4.62;4.22;;;;;;;12.56;100.00;99541.57;1668960;84;21117;-49
2022/10/26 02:27:31;;;;;;;4.67;4.30;;;;;;;12.53;100.00;99542.61;1668977;84;21096;-50
2022/10/26 02:29:58;;;;;;;4.30;2.95;;;;;;;12.54;100.00;99539.44;1668125;84;21559;-49
2022/10/26 02:32:27;;;;;;;4.70;4.40;;;;;;;12.55;100.00;99547.45;1670394;84;21954;-49
2022/10/26 02:34:54;;;;;;;4.60;4.30;;;;;;;12.54;100.00;99549.76;1672121;84;22593;-49
2022/10/26 02:37:21;;;;;;;5.92;4.35;;;;;;;12.52;100.00;99546.27;1670861;84;21498;-50
2022/10/26 02:39:50;;;;;;;4.40;4.10;;;;;;;12.51;100.00;99548.09;1673318;84;21250;-50
2022/10/26 02:42:16;;;;;;;4.72;4.10;;;;;;;12.51;100.00;99545.88;1670406;84;21111;-50
2022/10/26 02:44:49;;;;;;;4.75;4.45;;;;;;;12.52;100.00;99543.57;1642000;85;23356;-50
2022/10/26 02:47:17;;;;;;;3.77;3.47;;;;;;;12.53;100.00;99543.09;1659278;84;21102;-49
2022/10/26 02:49:43;;;;;;;4.35;4.05;;;;;;;12.53;100.00;99546.66;1666407;84;21133;-49
2022/10/26 02:52:42;;;;;;;5.30;4.00;;;;;;;12.55;100.00;99541.18;1665927;84;22511;-50
2022/10/26 02:55:29;;;;;;;4.33;3.87;;;;;;;12.55;100.00;99543.87;1668371;84;21110;-49
2022/10/26 02:57:59;;;;;;;3.40;3.20;;;;;;;12.55;100.00;99547.45;1669463;84;22575;-49
2022/10/26 03:00:25;;;;;;;5.62;4.42;;;;;;;12.55;100.00;99551.98;1667843;84;21105;-51
2022/10/26 03:02:58;;;;;;;3.58;3.33;;;;;;;12.56;100.00;99561.34;1666898;84;21093;-50
2022/10/26 03:05:27;;;;;;;4.22;3.47;;;;;;;12.56;100.00;99556.42;1666767;84;21592;-50
2022/10/26 03:07:54;;;;;;;3.37;3.08;;;;;;;12.56;100.00;99559.13;1667463;84;21058;-49
2022/10/26 03:10:21;;;;;;;4.05;3.22;;;;;;;12.57;100.00;99564.91;1667571;84;21782;-49
2022/10/26 03:12:49;;;;;;;5.95;3.27;;;;;;;12.57;100.00;99564.91;1668506;84;21287;-49
2022/10/26 03:15:17;;;;;;;2.42;2.22;;;;;;;12.57;100.00;99563.09;1668768;84;21102;-49
2022/10/26 03:17:43;;;;;;;3.22;2.92;;;;;;;12.57;100.00;99571.19;1664105;84;22408;-49
2022/10/26 03:20:10;;;;;;;4.35;2.67;;;;;;;12.58;100.00;99563.95;1666988;84;21066;-50
2022/10/26 03:22:37;;;;;;;6.35;3.22;;;;;;;12.57;100.00;99574.36;1666058;84;22680;-50
2022/10/26 03:25:05;;;;;;;8.33;2.62;;;;;;;12.57;100.00;99573.02;1708968;81;21038;-49
2022/10/26 03:27:31;;;;;;;3.33;3.02;;;;;;;12.56;100.00;99572.14;1715604;81;21108;-49
2022/10/26 03:29:58;;;;;;;3.72;2.25;;;;;;;12.56;100.00;99566.74;1707634;81;21114;-50
2022/10/26 03:32:25;;;;;;;5.15;2.60;;;;;;;12.57;100.00;99567.14;1708680;81;21550;-49
2022/10/26 03:34:51;;;;;;;3.10;2.90;;;;;;;12.58;100.00;99556.73;1710445;81;21801;-48
2022/10/26 03:37:17;;;;;;;8.60;2.42;;;;;;;12.58;100.00;99556.73;1675950;83;21543;-49
2022/10/26 03:39:44;;;;;;;5.05;2.17;;;;;;;12.60;100.00;99563.36;1672356;83;21153;-49
2022/10/26 03:42:11;;;;;;;4.75;2.60;;;;;;;12.61;100.00;99567.33;1714056;82;21049;-49
2022/10/26 03:44:38;;;;;;;3.02;2.42;;;;;;;12.62;100.00;99570.42;1709347;81;21037;-49
2022/10/26 03:47:04;;;;;;;4.55;2.20;;;;;;;12.63;100.00;99573.99;1704177;81;21968;-49
2022/10/26 03:49:31;;;;;;;4.20;2.12;;;;;;;12.63;100.00;99568.11;1706740;81;21053;-49
2022/10/26 03:51:58;;;;;;;2.90;2.70;;;;;;;12.64;100.00;99572.56;1707647;82;21321;-49
2022/10/26 03:54:25;;;;;;;2.98;2.65;;;;;;;12.64;100.00;99569.86;1702095;82;21032;-49
2022/10/26 03:56:52;;;;;;;3.12;2.08;;;;;;;12.65;100.00;99566.68;1701748;82;21093;-49
2022/10/26 03:59:18;;;;;;;2.35;2.15;;;;;;;12.67;100.00;99571.52;1705579;82;21795;-49
2022/10/26 04:01:45;;;;;;;2.22;2.00;;;;;;;12.67;100.00;99572.39;1699015;82;21392;-49
2022/10/26 04:04:13;;;;;;;4.70;2.33;;;;;;;12.66;100.00;99580.09;1703853;82;21093;-49
2022/10/26 04:06:39;;;;;;;5.50;1.92;;;;;;;12.66;100.00;99571.99;1703183;82;21081;-49
2022/10/26 04:09:07;;;;;;;2.58;2.27;;;;;;;12.65;100.00;99569.38;1672287;84;21054;-48
2022/10/26 04:11:34;;;;;;;3.45;2.12;;;;;;;12.64;100.00;99570.34;1651322;85;21856;-49
2022/10/26 04:14:00;;;;;;;2.60;1.98;;;;;;;12.64;100.00;99568.98;1654513;84;20944;-49
2022/10/26 04:16:28;;;;;;;2.22;1.60;;;;;;;12.64;100.00;99568.50;1701211;82;21054;-49
2022/10/26 04:18:55;;;;;;;2.20;1.62;;;;;;;12.64;100.00;99566.28;1704449;82;21661;-50
2022/10/26 04:21:21;;;;;;;2.35;2.08;;;;;;;12.65;100.00;99567.55;1701233;82;21094;-49
2022/10/26 04:23:48;;;;;;;2.20;2.00;;;;;;;12.65;100.00;99570.25;1703820;82;21824;-49
2022/10/26 04:26:15;;;;;;;2.77;2.58;;;;;;;12.67;100.00;99564.77;1705063;82;21085;-49
2022/10/26 04:28:42;;;;;;;2.65;1.90;;;;;;;12.67;100.00;99562.06;1701400;82;21093;-50
2022/10/26 04:31:09;;;;;;;2.72;2.35;;;;;;;12.69;100.00;99563.69;1704601;82;21591;-48
2022/10/26 04:33:37;;;;;;;5.03;2.80;;;;;;;12.72;100.00;99570.75;1701758;82;21097;-50
2022/10/26 04:36:04;;;;;;;3.87;2.85;;;;;;;12.72;100.00;99559.47;1698551;82;22816;-48
2022/10/26 04:38:32;;;;;;;4.10;2.67;;;;;;;12.73;100.00;99564.39;1672070;84;21129;-50
2022/10/26 04:40:58;;;;;;;6.78;2.67;;;;;;;12.74;100.00;99561.59;1702993;82;21070;-50
2022/10/26 04:43:26;;;;;;;3.55;2.35;;;;;;;12.74;100.00;99563.43;1698924;82;22453;-49
2022/10/26 04:45:56;;;;;;;3.22;2.83;;;;;;;12.74;100.00;99553.98;1701150;82;21052;-49
2022/10/26 04:48:23;;;;;;;3.00;2.67;;;;;;;12.76;100.00;99566.41;1696895;82;21856;-49
2022/10/26 04:50:51;;;;;;;4.80;3.42;;;;;;;12.78;100.00;99560.91;1700148;82;21062;-48
2022/10/26 04:53:17;;;;;;;4.53;3.42;;;;;;;12.79;100.00;99558.61;1704594;82;21042;-48
2022/10/26 04:55:45;;;;;;;3.02;2.83;;;;;;;12.78;100.00;99559.56;1699623;82;21560;-50
2022/10/26 04:58:12;;;;;;;5.50;2.40;;;;;;;12.79;100.00;99562.66;1696625;82;21057;-49
2022/10/26 05:00:38;;;;;;;7.15;3.25;;;;;;;12.79;100.00;99564.02;1698818;82;22688;-49
2022/10/26 05:03:06;;;;;;;4.12;3.25;;;;;;;12.79;100.00;99566.23;1700313;82;21055;-48
2022/10/26 05:05:33;;;;;;;5.25;4.08;;;;;;;12.81;100.00;99568.84;1678976;83;21082;-48
2022/10/26 05:08:02;;;;;;;5.50;4.47;;;;;;;12.83;100.00;99565.58;1708485;82;21160;-49
2022/10/26 05:10:28;;;;;;;3.95;3.35;;;;;;;12.84;100.00;99576.78;1701490;82;21311;-48
2022/10/26 05:12:56;;;;;;;4.42;4.20;;;;;;;12.85;100.00;99578.01;1706252;82;22168;-48
2022/10/26 05:15:23;;;;;;;4.62;4.20;;;;;;;12.86;100.00;99573.48;1705977;82;21116;-48
2022/10/26 05:17:56;;;;;;;4.35;3.95;;;;;;;12.84;100.00;99576.27;1695483;82;21712;-48
2022/10/26 05:20:30;;;;;;;4.67;4.37;;;;;;;12.84;100.00;99579.48;1697088;82;21493;-49
2022/10/26 05:22:57;;;;;;;7.53;3.17;;;;;;;12.83;100.00;99578.61;1702294;82;21040;-49
2022/10/26 05:25:24;;;;;;;3.05;2.67;;;;;;;12.83;100.00;99579.09;1696300;82;21788;-48
2022/10/26 05:27:51;;;;;;;3.37;3.17;;;;;;;12.83;100.00;99580.44;1665952;84;21069;-48
2022/10/26 05:30:19;;;;;;;6.22;3.98;;;;;;;12.83;100.00;99586.70;1699892;82;21050;-48
2022/10/26 05:32:53;;;;;;;4.72;3.22;;;;;;;12.84;100.00;99588.94;1679903;83;21168;-49
2022/10/26 05:35:21;;;;;;;4.60;3.42;;;;;;;12.87;100.00;99590.08;1702555;82;21403;-49
2022/10/26 05:37:47;;;;;;;4.97;3.92;;;;;;;12.89;100.00;99594.91;1702035;82;21837;-48
2022/10/26 05:40:16;;;;;;;3.33;2.98;;;;;;;12.89;100.00;99592.22;1702538;82;21074;-49
2022/10/26 05:42:43;;;;;;;4.58;3.55;;;;;;;12.90;100.00;99598.01;1701344;82;21358;-49
2022/10/26 05:45:11;;;;;;;5.22;3.60;;;;;;;12.89;100.00;99589.03;1703803;82;21056;-48
2022/10/26 05:47:41;;;;;;;6.05;3.37;;;;;;;12.90;100.00;99593.95;1702072;82;21076;-49
2022/10/26 05:50:09;;;;;;;6.33;3.62;;;;;;;12.91;100.00;99594.83;1666237;84;21841;-49
2022/10/26 05:52:44;;;;;;;7.33;3.08;;;;;;;12.91;100.00;99596.18;1702748;82;21555;-49
2022/10/26 05:55:14;;;;;;;3.17;2.85;;;;;;;12.92;100.00;99593.39;1708465;82;21119;-48
2022/10/26 05:57:43;;;;;;;3.35;2.35;;;;;;;12.94;100.00;99593.27;1703110;82;21587;-48
2022/10/26 06:00:23;;;;;;;7.47;3.00;;;;;;;12.94;100.00;99590.57;1671726;84;21085;-48
2022/10/26 06:03:16;;;;;;;4.33;2.58;;;;;;;12.95;100.00;99597.72;1700374;82;21910;-49
2022/10/26 06:05:56;;;;;;;5.95;3.12;;;;;;;12.94;100.00;99594.14;1698763;82;21058;-49
2022/10/26 06:08:26;;;;;;;2.98;2.77;;;;;;;12.95;100.00;99603.13;1703309;82;21356;-49
2022/10/26 06:10:55;;;;;;;3.37;2.42;;;;;;;12.95;100.00;99603.13;1705423;82;21107;-49
2022/10/26 06:13:22;;;;;;;6.67;2.60;;;;;;;12.94;100.00;99602.73;1671891;83;21089;-49
2022/10/26 06:16:23;;;;;;;2.02;1.92;;;;;;;12.93;100.00;99598.31;1709449;82;21879;-48
2022/10/26 06:19:31;;;;;;;4.40;1.95;;;;;;;12.94;100.00;99598.67;1704505;82;21055;-48
2022/10/26 06:22:36;;;;;;;3.35;1.95;;;;;;;12.96;100.00;99599.46;1666344;84;21062;-49
2022/10/26 06:26:45;;;;;;;2.00;1.80;;;;;;;13.00;100.00;99587.52;1787394;77;27259;-48
2022/10/26 06:29:33;;;;;;;4.67;2.12;;;;;;;13.01;100.00;99604.13;1769416;79;21056;-50
2022/10/26 06:32:00;;;;;;;5.10;1.92;;;;;;;13.02;100.00;99609.41;1768246;79;21847;-51
2022/10/26 06:34:30;;;;;;;1.92;1.45;;;;;;;13.05;100.00;99607.88;1763826;79;21175;-50
2022/10/26 06:36:57;;;;;;;5.55;1.67;;;;;;;13.07;100.00;99608.67;1768403;79;21131;-47
2022/10/26 06:39:24;;;;;;;6.92;2.12;;;;;;;13.12;100.00;99616.48;1767502;78;21068;-48
2022/10/26 06:41:50;;;;;;;2.47;1.70;;;;;;;13.14;100.00;99617.30;1765069;78;21021;-48
2022/10/26 06:44:22;;;;;;;2.47;1.57;;;;;;;13.18;100.00;99615.66;1769018;78;21791;-48
2022/10/26 06:47:22;;;;;;;6.33;1.82;;;;;;;13.24;100.00;99626.59;1768165;79;21092;-48
2022/10/26 06:50:00;;;;;;;1.70;1.60;;;;;;;13.32;100.00;99623.41;1747886;79;22412;-48
2022/10/26 06:52:43;;;;;;;3.90;1.70;;;;;;;13.35;100.00;99625.47;1751502;78;21046;-47
2022/10/26 06:55:14;;;;;;;2.98;1.65;;;;;;;13.38;100.00;99623.90;1766605;78;21064;-47
2022/10/26 06:57:41;;;;;;;1.80;1.70;;;;;;;13.40;100.00;99630.57;1705934;81;21854;-48
2022/10/26 07:00:20;;;;;;;1.60;1.40;;;;;;;13.42;100.00;99632.23;1715214;81;21061;-48
2022/10/26 07:02:47;;;;;;;1.75;1.50;;;;;;;13.44;100.00;99634.33;1717749;81;21123;-48
2022/10/26 07:05:14;;;;;;;1.65;1.50;;;;;;;13.45;100.00;99631.14;1698870;82;21078;-48
2022/10/26 07:07:46;;;;;;;1.55;1.45;;;;;;;13.44;100.00;99637.55;1717565;81;21084;-48
2022/10/26 07:10:13;;;;;;;3.65;1.20;;;;;;;13.45;100.00;99641.48;1710402;81;21828;-47
2022/10/26 07:12:40;;;;;;;1.55;1.45;;;;;;;13.45;100.00;99645.53;1697368;81;21037;-48
2022/10/26 07:15:07;;;;;;;1.07;0.98;;;;;;;13.48;100.00;99642.66;1710136;81;21521;-48
2022/10/26 07:17:46;;;;;;;5.47;1.10;;;;;;;13.50;100.00;99646.14;1706558;81;22454;-48
2022/10/26 07:20:17;;;;;;;1.55;1.17;;;;;;;13.55;100.00;99645.84;1711059;81;21068;-48
2022/10/26 07:22:44;;;;;;;1.55;1.00;;;;;;;13.60;100.00;99647.80;1704661;81;21794;-49
2022/10/26 07:25:11;;;;;;;3.42;1.12;;;;;;;13.64;100.00;99642.09;1699981;81;21160;-47
2022/10/26 07:27:37;;;;;;;2.37;1.10;;;;;;;13.68;100.00;99649.54;1674073;83;21062;-48
2022/10/26 07:30:05;;;;;;;3.58;1.22;;;;;;;13.72;100.00;99659.66;1730398;80;21350;-49
2022/10/26 07:32:32;;;;;;;1.20;1.00;;;;;;;13.73;100.00;99655.52;1723937;81;21049;-48
2022/10/26 07:34:59;;;;;;;1.37;0.90;;;;;;;13.74;100.00;99657.73;1734339;81;21036;-48
2022/10/26 07:37:26;;;;;;;2.00;0.90;;;;;;;13.73;100.00;99662.76;1728188;81;21017;-47
2022/10/26 07:39:52;;;;;;;4.20;1.00;;;;;;;13.71;100.00;99672.31;1693246;82;21222;-47
2022/10/26 07:42:19;;;;;;;1.20;1.00;;;;;;;13.70;100.00;99659.75;1727205;81;21862;-48
2022/10/26 07:44:45;;;;;;;1.00;0.80;;;;;;;13.71;100.00;99672.80;1724972;80;22478;-47
2022/10/26 07:47:12;;;;;;;2.40;1.27;;;;;;;13.69;100.00;99665.28;1722865;81;21955;-48
2022/10/26 07:49:39;;;;;;;1.67;0.90;;;;;;;13.69;100.00;99668.86;1730517;81;21040;-47
2022/10/26 07:52:06;;;;;;;1.95;0.90;;;;;;;13.70;100.00;99668.35;1728312;80;21474;-48
2022/10/26 07:54:34;;;;;;;1.75;0.88;;;;;;;13.71;100.00;99670.97;1724232;80;21482;-49
2022/10/26 07:57:00;;;;;;;1.40;0.88;;;;;;;13.74;100.00;99661.80;1723906;80;21083;-48
2022/10/26 07:59:27;;;;;;;1.10;1.00;;;;;;;13.76;100.00;99670.70;1723412;80;22143;-48
2022/10/26 08:01:53;;;;;;;1.00;0.85;;;;;;;13.76;100.00;99677.45;1732767;80;21639;-48
2022/10/26 08:04:19;;;;;;;1.20;0.90;;;;;;;13.74;100.00;99676.67;1725192;80;21112;-51
2022/10/26 08:06:47;;;;;;;1.17;1.00;;;;;;;13.77;100.00;99679.20;1723527;81;21550;-48
2022/10/26 08:09:14;;;;;;;4.30;1.40;;;;;;;13.79;100.00;99682.66;1721981;80;21707;-48
2022/10/26 08:11:41;;;;;;;2.55;0.90;;;;;;;13.79;100.00;99679.47;1721697;81;23750;-48
2022/10/26 08:14:09;;;;;;;2.37;0.93;;;;;;;13.82;100.00;99682.48;1725379;80;21013;-49
2022/10/26 08:16:39;;;;;;;2.83;1.20;;;;;;;13.84;100.00;99687.31;1723745;80;21051;-48
2022/10/26 08:19:05;;;;;;;3.22;1.57;;;;;;;13.85;100.00;99689.94;1727846;80;20957;-49
2022/10/26 08:21:32;;;;;;;1.95;1.20;;;;;;;13.87;100.00;99691.16;1724548;80;21052;-49
2022/10/26 08:23:59;;;;;;;4.62;1.45;;;;;;;13.88;100.00;99696.97;1718521;80;21840;-49
2022/10/26 08:26:25;;;;;;;2.33;1.55;;;;;;;13.88;100.00;99697.84;1746303;79;22253;-49
2022/10/26 08:28:52;;;;;;;1.30;1.20;;;;;;;13.90;100.00;99700.45;1757976;79;21093;-49
2022/10/26 08:31:19;;;;;;;2.37;1.50;;;;;;;13.92;100.00;99693.12;1755994;79;21052;-49
2022/10/26 08:33:47;;;;;;;2.00;1.52;;;;;;;13.95;100.00;99688.87;1758870;79;21589;-49
2022/10/26 08:36:18;;;;;;;2.27;1.47;;;;;;;13.98;100.00;99690.89;1754500;79;21828;-49
2022/10/26 08:38:47;;;;;;;1.55;1.40;;;;;;;14.01;100.00;99691.19;1757538;79;21093;-49
2022/10/26 08:41:14;;;;;;;2.30;1.12;;;;;;;14.07;100.00;99694.84;1757869;79;21586;-49
2022/10/26 08:43:48;;;;;;;5.15;1.67;;;;;;;14.12;100.00;99696.77;1763777;79;21081;-49
2022/10/26 08:46:20;;;;;;;2.87;1.35;;;;;;;14.20;100.00;99698.53;1753770;79;21104;-49
2022/10/26 08:48:55;;;;;;;3.98;1.37;;;;;;;14.28;100.00;99698.91;1760514;80;22584;-49
2022/10/26 08:51:29;;;;;;;2.22;1.45;;;;;;;14.34;100.00;99703.05;1735180;80;21061;-49
2022/10/26 08:54:14;;;;;;;1.47;1.30;;;;;;;14.43;100.00;99708.39;1758273;79;29294;-49
2022/10/26 08:56:48;;;;;;;3.90;1.70;;;;;;;14.51;100.00;99708.28;1759630;79;21085;-49
2022/10/26 08:59:40;;;;;;;1.85;1.65;;;;;;;14.59;100.00;99706.42;1757314;79;21009;-50
2022/10/26 09:02:13;;;;;;;1.87;1.30;;;;;;;14.65;100.00;99711.43;1754582;79;21785;-49
2022/10/26 09:04:40;;;;;;;3.12;1.10;;;;;;;14.67;100.00;99712.20;1756957;80;21068;-49
2022/10/26 09:07:33;;;;;;;1.92;1.20;;;;;;;14.68;100.00;99719.37;1715674;81;21044;-49
2022/10/26 09:10:26;;;;;;;3.40;1.10;;;;;;;14.68;100.00;99722.08;1757493;79;21062;-49
2022/10/26 09:13:19;;;;;;;2.85;1.40;;;;;;;14.68;100.00;99725.66;1734063;79;21071;-49
2022/10/26 09:16:15;;;;;;;1.30;1.20;;;;;;;14.66;100.00;99728.94;1727633;79;22363;-49
2022/10/26 09:19:11;;;;;;;1.27;1.17;;;;;;;14.63;100.00;99729.65;1755944;79;21199;-49
2022/10/26 09:21:55;;;;;;;1.15;0.90;;;;;;;14.62;100.00;99733.32;1755192;79;21191;-49
2022/10/26 09:24:32;;;;;;;5.57;1.00;;;;;;;14.65;100.00;99734.45;1754873;79;21707;-50
2022/10/26 09:27:24;;;;;;;2.10;0.95;;;;;;;14.66;100.00;99733.00;1748734;79;21101;-50
2022/10/26 09:29:51;;;;;;;1.40;0.90;;;;;;;14.64;100.00;99734.06;1745095;79;21904;-50
2022/10/26 09:35:01;;;;;;;1.60;1.05;;;;;;;14.60;100.00;99725.29;1791719;78;29382;-48
2022/10/26 09:37:33;;;;;;;1.20;1.00;;;;;;;14.57;100.00;99744.92;1766176;79;21118;-49
2022/10/26 09:40:27;;;;;;;2.15;1.27;;;;;;;14.54;100.00;99742.43;1745558;79;21480;-48
2022/10/26 09:43:04;;;;;;;2.17;1.40;;;;;;;14.52;100.00;99741.17;1742076;80;21576;-49
2022/10/26 09:45:38;;;;;;;1.22;0.82;;;;;;;14.49;100.00;99737.29;1705413;81;21434;-50
2022/10/26 09:48:24;;;;;;;;;;;;;;;14.48;100.00;99736.03;1686134;83;21094;-50
2022/10/26 09:50:51;;;;;;;2.15;1.45;;;;;;;14.48;100.00;99736.91;1674027;83;20125;-48
2022/10/26 09:53:18;;;;;;;1.80;1.10;;;;;;;14.54;100.00;99726.18;1700378;82;21539;-50
2022/10/26 09:55:46;;;;;;;1.50;1.12;;;;;;;14.59;100.00;99737.09;1679976;83;21057;-50
2022/10/26 09:58:16;;;;;;;1.47;1.37;;;;;;;14.61;100.00;99742.41;1678152;83;21105;-49
2022/10/26 10:00:42;;;;;;;2.62;1.40;;;;;;;14.62;100.00;99745.52;1674384;83;21061;-49
2022/10/26 10:03:30;;;;;;;2.10;1.30;;;;;;;14.63;100.00;99739.12;1709628;81;21073;-50
2022/10/26 10:06:20;;;;;;;2.85;1.12;;;;;;;14.62;100.00;99744.16;1680393;83;22974;-50
2022/10/26 10:09:19;;;;;;;1.80;1.00;;;;;;;14.63;100.00;99735.06;1675271;83;21618;-49
2022/10/26 10:11:54;;;;;;;1.35;1.10;;;;;;;14.65;100.00;99745.29;1705528;81;21049;-50
2022/10/26 10:14:28;;;;;;;1.95;0.90;;;;;;;14.68;100.00;99739.20;1681994;83;21208;-50
2022/10/26 10:16:59;;;;;;;1.52;0.95;;;;;;;14.74;100.00;99729.80;1708600;81;21081;-50
2022/10/26 10:19:31;;;;;;;2.80;0.90;;;;;;;14.84;100.00;99731.42;1683409;83;21582;-51
2022/10/26 10:22:11;;;;;;;4.97;1.20;;;;;;;14.94;100.00;99728.00;1683287;83;21284;-50
2022/10/26 10:24:41;;;;;;;2.55;0.90;;;;;;;15.05;100.00;99742.20;1710105;81;21311;-49
2022/10/26 10:27:16;;;;;;;2.20;1.10;;;;;;;15.15;100.00;99738.75;1712749;81;21072;-49
2022/10/26 10:29:50;;;;;;;2.45;0.95;;;;;;;15.24;100.00;99737.75;1711115;81;21029;-50
2022/10/26 10:32:31;;;;;;;1.00;0.85;;;;;;;15.31;100.00;99736.39;1682602;83;21070;-49
2022/10/26 10:34:59;;;;;;;2.45;0.93;;;;;;;15.34;100.00;99740.23;1693011;82;21059;-50
2022/10/26 10:37:35;;;;;;;1.70;1.20;;;;;;;15.31;100.00;99745.36;1698373;82;21093;-49
2022/10/26 10:40:23;;;;;;;1.85;1.00;;;;;;;15.28;100.00;99744.23;1701130;82;21069;-50
2022/10/26 10:42:51;;;;;;;3.50;1.20;;;;;;;15.26;100.00;99744.81;1633968;85;21611;-50
2022/10/26 10:45:28;;;;;;;1.95;1.20;;;;;;;15.24;100.00;99747.23;1693890;82;22611;-51
2022/10/26 10:48:14;;;;;;;1.20;0.95;;;;;;;15.22;100.00;99750.56;1697983;82;21086;-51
2022/10/26 10:51:02;;;;;;;2.02;0.90;;;;;;;15.21;100.00;99754.24;1696372;82;21190;-50
2022/10/26 10:53:45;;;;;;;4.37;1.22;;;;;;;15.19;100.00;99752.11;1698148;82;21705;-51
2022/10/26 10:56:48;;;;;;;1.98;0.90;;;;;;;15.14;100.00;99757.86;1698170;82;21661;-49
2022/10/26 10:59:46;;;;;;;2.08;0.98;;;;;;;15.06;100.00;99762.41;1698155;82;21944;-50
2022/10/26 11:02:31;;;;;;;1.90;1.07;;;;;;;15.02;100.00;99763.60;1698645;82;21104;-50
2022/10/26 11:05:41;;;;;;;1.62;1.50;;;;;;;15.00;100.00;99764.17;1694308;82;21002;-49
2022/10/26 11:08:14;;;;;;;1.62;0.78;;;;;;;14.99;100.00;99763.79;1697922;82;21109;-50
2022/10/26 11:11:00;;;;;;;1.27;0.80;;;;;;;14.95;100.00;99764.98;1655449;84;22472;-51
2022/10/26 11:13:37;;;;;;;2.02;0.80;;;;;;;14.92;100.00;99764.30;1655576;84;22658;-50
2022/10/26 11:16:08;;;;;;;1.30;0.80;;;;;;;14.90;100.00;99756.27;1699018;82;21092;-51
2022/10/26 11:18:40;;;;;;;1.67;0.80;;;;;;;14.89;100.00;99755.00;1623612;85;21125;-50
2022/10/26 11:21:28;;;;;;;2.62;0.80;;;;;;;14.89;100.00;99755.88;1698213;82;21080;-51
2022/10/26 11:24:18;;;;;;;1.67;0.80;;;;;;;14.88;100.00;99758.23;1696638;82;21554;-50
2022/10/26 11:26:51;;;;;;;1.22;1.10;;;;;;;14.90;100.00;99755.39;1627309;85;22064;-51
2022/10/26 11:29:43;;;;;;;2.92;1.22;;;;;;;14.93;100.00;99762.84;1700509;82;21076;-50
2022/10/26 11:32:20;;;;;;;3.35;1.30;;;;;;;14.93;100.00;99760.14;1697655;82;21068;-50
2022/10/26 11:35:06;;;;;;;3.12;1.57;;;;;;;14.92;100.00;99761.11;1719220;80;21088;-51
2022/10/26 11:38:15;;;;;;;2.55;1.30;;;;;;;14.92;100.00;99763.81;1726880;80;21523;-50
2022/10/26 11:40:55;;;;;;;2.45;1.60;;;;;;;14.93;100.00;99762.84;1728886;80;21899;-51
2022/10/26 11:43:36;;;;;;;2.72;2.52;;;;;;;14.95;100.00;99760.91;1729660;80;21069;-50
2022/10/26 11:46:17;;;;;;;3.75;2.30;;;;;;;14.97;100.00;99759.47;1734108;80;21049;-50
2022/10/26 11:48:52;;;;;;;5.62;3.08;;;;;;;14.99;100.00;99767.86;1730333;80;21045;-51
2022/10/26 11:51:36;;;;;;;4.17;2.62;;;;;;;15.02;100.00;99765.44;1729156;80;21054;-51
2022/10/26 11:54:11;;;;;;;4.53;2.80;;;;;;;15.05;100.00;99762.53;1724933;80;23223;-51
2022/10/26 11:56:43;;;;;;;8.03;3.90;;;;;;;15.06;100.00;99765.12;1730798;80;21218;-50